createdAt,value
2018-08-25T00:02:16.986Z,18.50
2018-08-25T00:04:45.447Z,18.50
2018-08-25T00:07:13.810Z,18.50
2018-08-25T00:09:42.227Z,18.50
2018-08-25T00:12:10.669Z,18.40
2018-08-25T00:14:39.176Z,18.40
2018-08-25T00:17:07.529Z,18.30
2018-08-25T00:19:35.955Z,18.20
2018-08-25T00:22:04.395Z,18.20
2018-08-25T00:24:32.890Z,18.20
2018-08-25T00:27:01.258Z,18.20
2018-08-25T00:29:29.679Z,18.20
2018-08-25T00:31:58.064Z,18.10
2018-08-25T00:34:26.539Z,18.10
2018-08-25T00:36:54.862Z,18.00
2018-08-25T00:39:23.347Z,17.90
2018-08-25T00:41:51.718Z,17.90
2018-08-25T00:44:20.195Z,17.90
2018-08-25T00:46:48.583Z,18.00
2018-08-25T00:49:17.884Z,18.00
2018-08-25T00:51:46.281Z,18.00
2018-08-25T00:54:14.727Z,17.90
2018-08-25T00:56:43.102Z,17.90
2018-08-25T00:59:11.639Z,17.90
2018-08-25T01:01:40.077Z,18.00
2018-08-25T01:04:08.563Z,18.00
2018-08-25T01:06:37.038Z,18.00
2018-08-25T01:09:07.447Z,18.00
2018-08-25T01:11:35.946Z,18.00
2018-08-25T01:14:04.398Z,17.90
2018-08-25T01:16:32.727Z,17.90
2018-08-25T01:19:01.303Z,18.00
2018-08-25T01:21:29.680Z,17.90
2018-08-25T01:23:58.115Z,17.90
2018-08-25T01:26:26.495Z,17.90
2018-08-25T01:28:55.003Z,17.90
2018-08-25T01:31:26.822Z,17.80
2018-08-25T01:33:55.556Z,17.70
2018-08-25T01:36:23.950Z,17.60
2018-08-25T01:38:52.296Z,17.60
2018-08-25T01:41:20.671Z,17.60
2018-08-25T01:43:49.024Z,17.60
2018-08-25T01:46:17.383Z,17.60
2018-08-25T01:48:45.740Z,17.60
2018-08-25T01:51:14.124Z,17.50
2018-08-25T01:53:42.539Z,17.60
2018-08-25T01:56:10.957Z,17.60
2018-08-25T01:58:39.428Z,17.60
2018-08-25T02:01:07.804Z,17.70
2018-08-25T02:03:36.183Z,17.70
2018-08-25T02:06:04.605Z,17.60
2018-08-25T02:08:32.960Z,17.60
2018-08-25T02:11:01.963Z,17.60
2018-08-25T02:13:30.323Z,17.50
2018-08-25T02:15:58.692Z,17.50
2018-08-25T02:18:27.072Z,17.50
2018-08-25T02:20:55.416Z,17.40
2018-08-25T02:23:23.819Z,17.40
2018-08-25T02:25:52.270Z,17.50
2018-08-25T02:28:20.683Z,17.50
2018-08-25T02:30:48.974Z,17.50
2018-08-25T02:33:17.306Z,17.50
2018-08-25T02:35:45.726Z,17.50
2018-08-25T02:38:14.192Z,17.60
2018-08-25T02:40:42.674Z,17.50
2018-08-25T02:43:11.154Z,17.50
2018-08-25T02:45:39.572Z,17.40
2018-08-25T02:48:07.930Z,17.50
2018-08-25T02:50:36.325Z,17.50
2018-08-25T02:53:04.722Z,17.40
2018-08-25T02:55:33.125Z,17.30
2018-08-25T02:58:01.475Z,17.30
2018-08-25T03:00:29.834Z,17.20
2018-08-25T03:02:58.230Z,17.20
2018-08-25T03:05:26.594Z,17.20
2018-08-25T03:07:54.986Z,17.10
2018-08-25T03:10:23.572Z,17.10
2018-08-25T03:12:52.035Z,17.10
2018-08-25T03:15:20.417Z,17.10
2018-08-25T03:17:48.771Z,17.10
2018-08-25T03:20:17.158Z,17.20
2018-08-25T03:22:45.601Z,17.20
2018-08-25T03:25:13.959Z,17.20
2018-08-25T03:27:42.474Z,17.20
2018-08-25T03:30:10.888Z,17.30
2018-08-25T03:32:39.302Z,17.30
2018-08-25T03:35:07.774Z,17.30
2018-08-25T03:37:36.251Z,17.20
2018-08-25T03:40:04.703Z,17.20
2018-08-25T03:42:33.138Z,17.10
2018-08-25T03:45:01.607Z,17.10
2018-08-25T03:47:30.027Z,17.00
2018-08-25T03:49:58.464Z,16.90
2018-08-25T03:52:26.905Z,16.70
2018-08-25T03:54:55.347Z,16.60
2018-08-25T03:57:23.763Z,16.40
2018-08-25T03:59:52.208Z,16.30
2018-08-25T04:02:20.685Z,16.20
2018-08-25T04:04:49.013Z,16.10
2018-08-25T04:07:17.579Z,16.20
2018-08-25T04:09:45.972Z,16.20
2018-08-25T04:12:14.478Z,16.10
2018-08-25T04:14:42.900Z,16.10
2018-08-25T04:17:11.364Z,16.10
2018-08-25T04:19:39.821Z,16.10
2018-08-25T04:22:08.467Z,16.00
2018-08-25T04:24:37.149Z,16.00
2018-08-25T04:27:05.577Z,15.90
2018-08-25T04:29:34.046Z,15.80
2018-08-25T04:32:02.589Z,15.80
2018-08-25T04:34:30.999Z,15.80
2018-08-25T04:36:59.458Z,15.70
2018-08-25T04:39:27.834Z,15.70
2018-08-25T04:41:56.435Z,15.50
2018-08-25T04:44:24.799Z,15.50
2018-08-25T04:46:53.298Z,15.40
2018-08-25T04:49:21.771Z,15.40
2018-08-25T04:51:50.237Z,15.40
2018-08-25T04:54:18.634Z,15.30
2018-08-25T04:56:47.310Z,15.30
2018-08-25T04:59:15.647Z,15.30
2018-08-25T05:01:44.160Z,15.40
2018-08-25T05:04:12.493Z,15.40
2018-08-25T05:06:40.974Z,15.30
2018-08-25T05:09:10.495Z,15.30
2018-08-25T05:11:39.195Z,15.20
2018-08-25T05:14:07.559Z,15.20
2018-08-25T05:16:36.076Z,15.20
2018-08-25T05:19:04.478Z,15.10
2018-08-25T05:21:32.973Z,15.00
2018-08-25T05:24:01.529Z,14.90
2018-08-25T05:26:30.230Z,14.90
2018-08-25T05:28:58.695Z,14.90
2018-08-25T05:31:27.403Z,15.00
2018-08-25T05:33:55.903Z,15.00
2018-08-25T05:36:24.381Z,15.00
2018-08-25T05:38:52.747Z,15.00
2018-08-25T05:41:21.343Z,15.00
2018-08-25T05:43:49.665Z,15.00
2018-08-25T05:46:18.700Z,15.00
2018-08-25T05:48:47.192Z,15.00
2018-08-25T05:51:15.753Z,15.00
2018-08-25T05:53:44.169Z,15.00
2018-08-25T05:56:12.838Z,15.00
2018-08-25T05:58:41.225Z,14.90
2018-08-25T06:01:09.750Z,14.90
2018-08-25T06:03:38.155Z,14.90
2018-08-25T06:06:06.628Z,14.90
2018-08-25T06:08:35.022Z,14.90
2018-08-25T06:11:03.551Z,14.90
2018-08-25T06:13:31.964Z,15.00
2018-08-25T06:16:00.500Z,14.90
2018-08-25T06:18:28.874Z,14.90
2018-08-25T06:20:57.278Z,14.90
2018-08-25T06:23:25.641Z,15.00
2018-08-25T06:25:54.163Z,15.10
2018-08-25T06:28:22.504Z,15.00
2018-08-25T06:30:50.983Z,15.00
2018-08-25T06:33:19.428Z,14.90
2018-08-25T06:35:47.965Z,14.90
2018-08-25T06:38:16.347Z,15.00
2018-08-25T06:40:44.899Z,15.00
2018-08-25T06:43:13.242Z,15.10
2018-08-25T06:45:41.729Z,15.00
2018-08-25T06:48:10.055Z,15.00
2018-08-25T06:50:38.668Z,15.00
2018-08-25T06:53:07.121Z,15.00
2018-08-25T06:55:35.513Z,15.00
2018-08-25T06:58:04.029Z,15.00
2018-08-25T07:00:33.108Z,15.00
2018-08-25T07:03:01.497Z,15.10
2018-08-25T07:05:30.104Z,15.10
2018-08-25T07:07:58.476Z,15.10
2018-08-25T07:10:27.353Z,14.90
2018-08-25T07:12:55.810Z,14.90
2018-08-25T07:15:24.429Z,14.90
2018-08-25T07:17:52.860Z,14.90
2018-08-25T07:20:21.492Z,15.00
2018-08-25T07:22:49.873Z,15.10
2018-08-25T07:25:18.430Z,15.20
2018-08-25T07:27:46.838Z,15.20
2018-08-25T07:30:15.399Z,15.20
2018-08-25T07:32:43.929Z,15.30
2018-08-25T07:35:12.474Z,15.30
2018-08-25T07:37:40.843Z,15.40
2018-08-25T07:40:09.324Z,15.40
2018-08-25T07:42:37.715Z,15.40
2018-08-25T07:45:06.767Z,15.30
2018-08-25T07:47:35.198Z,15.30
2018-08-25T07:50:03.775Z,15.30
2018-08-25T07:52:32.239Z,15.30
2018-08-25T07:55:00.702Z,15.40
2018-08-25T07:57:29.124Z,15.40
2018-08-25T07:59:57.683Z,15.40
2018-08-25T08:02:26.045Z,15.40
2018-08-25T08:04:54.553Z,15.30
2018-08-25T08:07:23.044Z,15.30
2018-08-25T08:09:51.507Z,15.30
2018-08-25T08:12:19.985Z,15.30
2018-08-25T08:14:48.378Z,15.30
2018-08-25T08:17:16.762Z,15.40
2018-08-25T08:19:45.200Z,15.50
2018-08-25T08:22:13.630Z,15.50
2018-08-25T08:24:42.177Z,15.60
2018-08-25T08:27:10.555Z,15.70
2018-08-25T08:29:39.042Z,15.70
2018-08-25T08:32:08.728Z,15.70
2018-08-25T08:34:37.637Z,15.40
2018-08-25T08:37:06.630Z,15.40
2018-08-25T08:39:35.137Z,15.40
2018-08-25T08:42:03.590Z,15.30
2018-08-25T08:44:31.983Z,15.30
2018-08-25T08:47:00.542Z,15.30
2018-08-25T08:49:28.935Z,15.30
2018-08-25T08:51:57.383Z,15.20
2018-08-25T08:54:25.768Z,15.20
2018-08-25T08:56:54.143Z,15.20
2018-08-25T08:59:22.504Z,15.10
2018-08-25T09:01:50.975Z,15.00
2018-08-25T09:04:19.401Z,15.00
2018-08-25T09:06:47.933Z,15.00
2018-08-25T09:09:16.324Z,15.00
2018-08-25T09:11:44.741Z,15.10
2018-08-25T09:14:13.135Z,15.20
2018-08-25T09:16:41.509Z,15.20
2018-08-25T09:19:09.976Z,15.20
2018-08-25T09:21:38.305Z,15.20
2018-08-25T09:24:06.891Z,15.20
2018-08-25T09:26:35.357Z,15.20
2018-08-25T09:29:04.004Z,15.20
2018-08-25T09:31:32.384Z,15.10
2018-08-25T09:34:00.894Z,15.10
2018-08-25T09:36:29.419Z,15.10
2018-08-25T09:38:57.843Z,15.10
2018-08-25T09:41:26.218Z,15.10
2018-08-25T09:43:54.691Z,15.20
2018-08-25T09:46:23.073Z,15.30
2018-08-25T09:48:51.594Z,15.40
2018-08-25T09:51:19.928Z,15.50
2018-08-25T09:53:49.081Z,15.60
2018-08-25T09:56:17.502Z,15.90
2018-08-25T09:58:46.016Z,16.10
2018-08-25T10:01:19.651Z,16.30
2018-08-25T10:03:48.044Z,16.40
2018-08-25T10:06:16.524Z,16.40
2018-08-25T10:08:45.041Z,16.40
2018-08-25T10:11:13.384Z,16.50
2018-08-25T10:13:41.882Z,16.60
2018-08-25T10:16:10.240Z,16.70
2018-08-25T10:18:38.671Z,16.80
2018-08-25T10:21:07.456Z,16.90
2018-08-25T10:23:35.817Z,17.10
2018-08-25T10:26:04.278Z,17.20
2018-08-25T10:28:32.756Z,17.30
2018-08-25T10:31:02.094Z,17.40
2018-08-25T10:33:30.434Z,17.40
2018-08-25T10:35:58.789Z,17.50
2018-08-25T10:38:27.315Z,17.60
2018-08-25T10:40:55.814Z,17.60
2018-08-25T10:43:24.215Z,17.70
2018-08-25T10:45:52.575Z,17.80
2018-08-25T10:48:21.052Z,17.70
2018-08-25T10:50:49.401Z,17.80
2018-08-25T10:53:17.791Z,17.50
2018-08-25T10:55:46.143Z,17.40
2018-08-25T10:58:14.623Z,17.50
2018-08-25T11:00:43.123Z,17.60
2018-08-25T11:03:11.395Z,17.60
2018-08-25T11:05:39.750Z,17.70
2018-08-25T11:08:08.114Z,17.70
2018-08-25T11:10:36.456Z,17.90
2018-08-25T11:13:04.862Z,18.20
2018-08-25T11:15:33.282Z,18.50
2018-08-25T11:18:01.671Z,18.40
2018-08-25T11:20:30.128Z,18.30
2018-08-25T11:22:58.529Z,18.10
2018-08-25T11:25:26.883Z,18.20
2018-08-25T11:27:55.304Z,18.30
2018-08-25T11:30:23.691Z,18.60
2018-08-25T11:32:52.124Z,18.90
2018-08-25T11:35:20.467Z,19.30
2018-08-25T11:37:49.005Z,19.60
2018-08-25T11:40:17.362Z,19.80
2018-08-25T11:42:45.855Z,20.00
2018-08-25T11:45:14.219Z,20.20
2018-08-25T11:47:42.764Z,20.40
2018-08-25T11:50:11.186Z,20.40
2018-08-25T11:52:39.590Z,20.40
2018-08-25T11:55:07.982Z,20.40
2018-08-25T11:57:37.116Z,20.50
2018-08-25T12:00:06.793Z,20.70
2018-08-25T12:02:35.232Z,20.70
2018-08-25T12:05:03.707Z,20.70
2018-08-25T12:07:32.080Z,20.80
2018-08-25T12:10:00.454Z,20.80
2018-08-25T12:12:28.848Z,20.90
2018-08-25T12:14:57.275Z,21.00
2018-08-25T12:17:25.720Z,21.20
2018-08-25T12:19:54.184Z,21.40
2018-08-25T12:22:22.611Z,21.30
2018-08-25T12:24:51.030Z,21.30
2018-08-25T12:27:19.469Z,21.20
2018-08-25T12:29:47.892Z,21.20
2018-08-25T12:32:16.373Z,21.50
2018-08-25T12:34:44.755Z,21.80
2018-08-25T12:37:13.166Z,21.90
2018-08-25T12:39:42.120Z,22.20
2018-08-25T12:42:10.503Z,22.20
2018-08-25T12:44:39.005Z,22.10
2018-08-25T12:47:07.421Z,21.90
2018-08-25T12:49:35.792Z,21.50
2018-08-25T12:52:04.181Z,21.20
2018-08-25T12:54:32.535Z,21.10
2018-08-25T12:57:01.075Z,21.00
2018-08-25T12:59:29.492Z,21.10
2018-08-25T13:01:57.897Z,21.20
2018-08-25T13:04:26.343Z,21.30
2018-08-25T13:06:54.828Z,21.40
2018-08-25T13:09:23.215Z,21.50
2018-08-25T13:11:51.670Z,21.60
2018-08-25T13:14:20.129Z,21.60
2018-08-25T13:16:48.612Z,21.50
2018-08-25T13:19:17.096Z,21.40
2018-08-25T13:21:45.566Z,21.30
2018-08-25T13:24:14.182Z,21.30
2018-08-25T13:26:42.602Z,21.40
2018-08-25T13:29:11.010Z,21.40
2018-08-25T13:31:39.530Z,21.50
2018-08-25T13:34:07.974Z,21.40
2018-08-25T13:36:36.389Z,21.30
2018-08-25T13:39:08.013Z,21.10
2018-08-25T13:41:36.916Z,20.70
2018-08-25T13:44:05.648Z,20.10
2018-08-25T13:46:34.112Z,19.60
2018-08-25T13:49:02.881Z,19.20
2018-08-25T13:51:31.295Z,18.90
2018-08-25T13:53:59.721Z,18.70
2018-08-25T13:56:28.700Z,18.50
2018-08-25T13:58:57.113Z,18.20
2018-08-25T14:01:25.522Z,18.10
2018-08-25T14:03:53.903Z,17.90
2018-08-25T14:06:22.297Z,17.80
2018-08-25T14:08:50.749Z,17.80
2018-08-25T14:11:19.222Z,17.80
2018-08-25T14:13:47.682Z,17.80
2018-08-25T14:16:16.340Z,17.80
2018-08-25T14:18:44.658Z,17.70
2018-08-25T14:21:13.032Z,17.60
2018-08-25T14:23:41.462Z,17.50
2018-08-25T14:26:10.091Z,17.50
2018-08-25T14:28:38.567Z,17.50
2018-08-25T14:31:07.060Z,17.50
2018-08-25T14:33:35.477Z,17.60
2018-08-25T14:36:03.928Z,17.60
2018-08-25T14:38:32.297Z,17.60
2018-08-25T14:41:00.746Z,17.60
2018-08-25T14:43:29.158Z,17.60
2018-08-25T14:45:57.677Z,17.70
2018-08-25T14:48:26.188Z,17.80
2018-08-25T14:50:54.656Z,18.00
2018-08-25T14:53:23.062Z,18.10
2018-08-25T14:55:51.485Z,18.30
2018-08-25T14:58:19.898Z,18.40
2018-08-25T15:00:48.308Z,18.50
2018-08-25T15:03:17.051Z,18.50
2018-08-25T15:05:45.442Z,18.50
2018-08-25T15:08:13.843Z,18.60
2018-08-25T15:10:42.270Z,18.70
2018-08-25T15:13:10.737Z,18.70
2018-08-25T15:15:39.059Z,18.80
2018-08-25T15:18:07.507Z,18.90
2018-08-25T15:20:36.121Z,19.10
2018-08-25T15:23:04.730Z,19.20
2018-08-25T15:25:33.098Z,19.20
2018-08-25T15:28:01.558Z,19.10
2018-08-25T15:30:29.939Z,19.20
2018-08-25T15:32:58.357Z,19.20
2018-08-25T15:35:26.808Z,19.30
2018-08-25T15:37:55.203Z,19.50
2018-08-25T15:40:23.558Z,19.70
2018-08-25T15:42:52.064Z,19.90
2018-08-25T15:45:20.417Z,20.00
2018-08-25T15:47:48.804Z,20.10
2018-08-25T15:50:18.449Z,20.20
2018-08-25T15:52:46.884Z,20.20
2018-08-25T15:55:15.457Z,20.20
2018-08-25T15:57:43.860Z,20.20
2018-08-25T16:00:12.443Z,20.10
2018-08-25T16:02:40.858Z,20.10
2018-08-25T16:05:09.312Z,19.90
2018-08-25T16:07:37.860Z,19.90
2018-08-25T16:10:06.833Z,19.90
2018-08-25T16:12:35.408Z,19.80
2018-08-25T16:15:03.923Z,19.70
2018-08-25T16:17:32.370Z,19.40
2018-08-25T16:20:00.994Z,19.20
2018-08-25T16:22:29.510Z,19.00
2018-08-25T16:24:58.312Z,18.70
2018-08-25T16:27:27.123Z,18.40
2018-08-25T16:29:55.541Z,18.20
2018-08-25T16:32:23.933Z,18.00
2018-08-25T16:34:52.403Z,17.80
2018-08-25T16:37:20.766Z,17.80
2018-08-25T16:39:49.361Z,17.70
2018-08-25T16:42:17.787Z,17.60
2018-08-25T16:44:46.452Z,17.40
2018-08-25T16:47:14.935Z,17.30
2018-08-25T16:49:43.299Z,17.20
2018-08-25T16:52:12.339Z,17.10
2018-08-25T16:54:41.918Z,17.10
2018-08-25T16:57:10.448Z,17.20
2018-08-25T16:59:39.368Z,17.40
2018-08-25T17:02:07.943Z,17.60
2018-08-25T17:04:36.252Z,17.70
2018-08-25T17:07:04.914Z,17.80
2018-08-25T17:09:33.430Z,18.00
2018-08-25T17:12:32.679Z,18.20
2018-08-25T17:15:01.184Z,18.30
2018-08-25T17:17:29.668Z,18.30
2018-08-25T17:19:58.046Z,18.40
2018-08-25T17:22:26.706Z,18.40
2018-08-25T17:24:55.182Z,18.30
2018-08-25T17:27:23.705Z,18.20
2018-08-25T17:29:52.072Z,18.10
2018-08-25T17:32:20.528Z,18.00
2018-08-25T17:34:48.928Z,18.00
2018-08-25T17:37:17.447Z,17.90
2018-08-25T17:39:45.868Z,17.70
2018-08-25T17:42:14.525Z,17.50
2018-08-25T17:44:42.920Z,17.40
2018-08-25T17:47:11.488Z,17.30
2018-08-25T17:49:39.888Z,17.10
2018-08-25T17:52:08.574Z,16.90
2018-08-25T17:54:37.227Z,16.80
2018-08-25T17:57:05.822Z,16.70
2018-08-25T17:59:34.404Z,16.60
2018-08-25T18:02:02.945Z,16.60
2018-08-25T18:04:31.475Z,16.60
2018-08-25T18:07:00.287Z,16.60
2018-08-25T18:09:28.865Z,16.60
2018-08-25T18:11:57.325Z,16.60
2018-08-25T18:14:25.769Z,16.70
2018-08-25T18:16:54.375Z,16.70
2018-08-25T18:19:22.934Z,16.70
2018-08-25T18:21:51.707Z,16.70
2018-08-25T18:24:20.399Z,16.60
2018-08-25T18:26:49.324Z,16.60
2018-08-25T18:29:18.118Z,16.60
2018-08-25T18:31:47.007Z,16.40
2018-08-25T18:34:15.714Z,16.40
2018-08-25T18:36:44.565Z,16.30
2018-08-25T18:39:14.527Z,16.30
2018-08-25T18:41:43.733Z,16.20
2018-08-25T18:44:12.749Z,16.20
2018-08-25T18:46:41.579Z,16.30
2018-08-25T18:49:09.946Z,16.30
2018-08-25T18:51:38.688Z,16.30
2018-08-25T18:54:07.689Z,16.30
2018-08-25T18:56:38.008Z,16.20
2018-08-25T18:59:07.619Z,16.20
2018-08-25T19:01:36.490Z,16.20
2018-08-25T19:04:06.566Z,16.20
2018-08-25T19:06:36.313Z,16.20
2018-08-25T19:09:06.634Z,16.20
2018-08-25T19:11:36.104Z,16.20
2018-08-25T19:14:05.260Z,16.20
2018-08-25T19:16:34.670Z,16.10
2018-08-25T19:19:03.175Z,16.10
2018-08-25T19:21:31.983Z,16.10
2018-08-25T19:24:00.805Z,16.00
2018-08-25T19:26:30.283Z,15.90
2018-08-25T19:28:58.990Z,15.80
2018-08-25T19:31:27.748Z,15.80
2018-08-25T19:33:56.589Z,15.90
2018-08-25T19:36:25.307Z,15.90
2018-08-25T19:38:54.078Z,15.90
2018-08-25T19:41:22.988Z,15.90
2018-08-25T19:43:51.664Z,15.90
2018-08-25T19:46:20.404Z,15.80
2018-08-25T19:48:49.185Z,15.60
2018-08-25T19:51:17.886Z,15.60
2018-08-25T19:53:46.511Z,15.70
2018-08-25T19:56:15.218Z,15.70
2018-08-25T19:58:44.092Z,15.80
2018-08-25T20:01:12.616Z,15.80
2018-08-25T20:03:41.304Z,15.80
2018-08-25T20:06:09.827Z,15.70
2018-08-25T20:08:38.442Z,15.60
2018-08-25T20:11:07.175Z,15.60
2018-08-25T20:13:35.911Z,15.50
2018-08-25T20:16:04.443Z,15.50
2018-08-25T20:18:32.982Z,15.50
2018-08-25T20:21:01.834Z,15.60
2018-08-25T20:23:30.638Z,15.60
2018-08-25T20:25:59.146Z,15.60
2018-08-25T20:28:27.488Z,15.60
2018-08-25T20:30:55.956Z,15.60
2018-08-25T20:33:24.363Z,15.60
2018-08-25T20:35:53.137Z,15.60
2018-08-25T20:38:21.533Z,15.50
2018-08-25T20:40:50.028Z,15.40
2018-08-25T20:43:18.418Z,15.40
2018-08-25T20:45:47.138Z,15.40
2018-08-25T20:48:15.651Z,15.30
2018-08-25T20:50:44.131Z,15.30
2018-08-25T20:53:12.535Z,15.20
2018-08-25T20:55:41.127Z,15.20
2018-08-25T20:58:09.521Z,15.10
2018-08-25T21:00:38.155Z,15.00
2018-08-25T21:03:06.554Z,15.00
2018-08-25T21:05:35.049Z,15.00
2018-08-25T21:08:03.492Z,14.90
2018-08-25T21:10:32.175Z,14.80
2018-08-25T21:13:00.658Z,14.80
2018-08-25T21:15:29.092Z,14.80
2018-08-25T21:17:57.486Z,14.80
2018-08-25T21:20:26.378Z,14.80
2018-08-25T21:22:54.883Z,14.80
2018-08-25T21:25:23.493Z,14.80
2018-08-25T21:27:51.892Z,14.90
2018-08-25T21:30:20.301Z,14.90
2018-08-25T21:32:48.651Z,14.90
2018-08-25T21:35:17.123Z,14.90
2018-08-25T21:37:46.111Z,14.90
2018-08-25T21:40:14.611Z,14.80
2018-08-25T21:42:43.016Z,14.80
2018-08-25T21:45:11.460Z,14.80
2018-08-25T21:47:39.862Z,14.80
2018-08-25T21:50:08.413Z,14.80
2018-08-25T21:52:36.860Z,14.70
2018-08-25T21:55:05.340Z,14.70
2018-08-25T21:57:33.722Z,14.60
2018-08-25T22:00:02.260Z,14.60
2018-08-25T22:02:31.118Z,14.50
2018-08-25T22:04:59.883Z,14.50
2018-08-25T22:07:28.271Z,14.50
2018-08-25T22:09:56.732Z,14.40
2018-08-25T22:12:25.172Z,14.50
2018-08-25T22:14:53.630Z,14.50
2018-08-25T22:17:22.004Z,14.50
2018-08-25T22:19:50.460Z,14.50
2018-08-25T22:22:18.883Z,14.50
2018-08-25T22:24:47.442Z,14.50
2018-08-25T22:27:15.949Z,14.50
2018-08-25T22:29:44.445Z,14.60
2018-08-25T22:32:12.854Z,14.60
2018-08-25T22:34:41.299Z,14.60
2018-08-25T22:37:10.650Z,14.60
2018-08-25T22:39:39.132Z,14.50
2018-08-25T22:42:07.664Z,14.50
2018-08-25T22:44:36.256Z,14.40
2018-08-25T22:47:04.768Z,14.40
2018-08-25T22:49:33.279Z,14.30
2018-08-25T22:52:01.852Z,14.30
2018-08-25T22:54:30.384Z,14.20
2018-08-25T22:56:58.784Z,14.20
2018-08-25T22:59:27.177Z,14.30
2018-08-25T23:01:55.586Z,14.20
2018-08-25T23:04:24.152Z,14.30
2018-08-25T23:06:52.563Z,14.30
2018-08-25T23:09:21.059Z,14.40
2018-08-25T23:11:49.472Z,14.40
2018-08-25T23:14:17.920Z,14.40
2018-08-25T23:16:46.326Z,14.30
2018-08-25T23:19:14.712Z,14.30
2018-08-25T23:21:43.097Z,14.20
2018-08-25T23:24:11.566Z,14.10
2018-08-25T23:26:40.037Z,14.10
2018-08-25T23:29:08.460Z,14.10
2018-08-25T23:31:36.803Z,14.10
2018-08-25T23:34:05.259Z,14.10
2018-08-25T23:36:33.683Z,14.00
2018-08-25T23:39:02.360Z,14.00
2018-08-25T23:41:30.799Z,14.00
2018-08-25T23:43:59.243Z,13.90
2018-08-25T23:46:27.658Z,13.90
2018-08-25T23:48:56.225Z,13.80
2018-08-25T23:51:24.547Z,13.80
2018-08-25T23:53:52.986Z,13.80
2018-08-25T23:56:21.395Z,13.80
2018-08-25T23:58:49.813Z,13.60
